Time;durP1;ratioP1;P1;durP2;ratioP2;P2;SDS_P1;SDS_P2;PMS_P1;PMS_P2;Temp;Humidity;BMP_temperature;BMP_pressure;BME280_temperature;BME280_humidity;BME280_pressure;Samples;Min_cycle;Max_cycle;Signal;HPM_P1;HPM_P2
2021/10/02 00:47:07;;;;;;;7.32;4.47;;;;;;;11.09;85.21;97920.03;4982002;28;20060;-56
2021/10/02 00:49:38;;;;;;;7.32;4.82;;;;;;;11.32;84.38;97920.75;4982328;28;21083;-56
2021/10/02 00:52:06;;;;;;;7.57;4.90;;;;;;;10.84;88.81;97925.47;4981602;28;20651;-56
2021/10/02 00:54:32;;;;;;;10.57;5.25;;;;;;;10.74;89.72;97916.34;4982458;28;20560;-56
2021/10/02 01:02:10;;;;;;;5.75;4.20;;;;;;;11.07;87.12;97915.81;5014432;23;20051;-58
2021/10/02 01:04:57;;;;;;;8.38;4.05;;;;;;;11.07;86.67;97915.81;4945036;28;20773;-58
2021/10/02 01:07:56;;;;;;;8.95;4.22;;;;;;;11.28;87.75;97909.59;4952616;28;20632;-58
2021/10/02 01:10:33;;;;;;;5.93;4.10;;;;;;;11.06;89.63;97914.09;4951655;28;20030;-58
2021/10/02 01:13:27;;;;;;;6.60;3.88;;;;;;;11.09;88.43;97919.19;4954103;28;20097;-59
2021/10/02 01:16:25;;;;;;;5.30;4.03;;;;;;;11.14;87.04;97922.44;4953563;28;20455;-58
2021/10/02 01:19:04;;;;;;;8.25;4.38;;;;;;;11.14;87.02;97927.66;4952834;28;20051;-59
2021/10/02 01:21:48;;;;;;;5.60;3.90;;;;;;;11.08;88.75;97928.78;4952112;28;20030;-58
2021/10/02 01:24:49;;;;;;;7.35;4.50;;;;;;;11.06;86.02;97919.31;4950120;28;20507;-59
2021/10/02 01:27:37;;;;;;;5.55;3.80;;;;;;;11.04;90.70;97921.16;4950115;28;20397;-58
2021/10/02 01:30:08;;;;;;;7.50;4.22;;;;;;;11.57;85.32;97917.88;4951992;28;20023;-58
2021/10/02 01:32:45;;;;;;;8.10;4.28;;;;;;;11.02;87.96;97918.59;4950800;28;20050;-59
2021/10/02 01:36:06;;;;;;;5.43;3.50;;;;;;;11.63;87.39;97914.13;4954542;28;20027;-59
2021/10/02 01:49:03;;;;;;;6.00;3.70;;;;;;;11.21;89.59;97938.66;4951116;28;20041;-59
2021/10/02 01:51:29;;;;;;;4.47;2.92;;;;;;;11.93;90.99;97930.19;4951904;28;20035;-59
2021/10/02 01:53:56;;;;;;;6.20;3.85;;;;;;;11.73;85.49;97931.91;4952164;28;20106;-58
2021/10/02 01:56:23;;;;;;;6.70;3.80;;;;;;;11.36;87.16;97933.63;4952100;28;20046;-59
2021/10/02 01:58:49;;;;;;;6.57;3.72;;;;;;;11.19;85.86;97938.72;4953117;28;20035;-59
2021/10/02 02:01:15;;;;;;;5.45;3.38;;;;;;;11.60;85.70;97938.63;4949900;28;20039;-59
2021/10/02 02:03:44;;;;;;;5.93;3.80;;;;;;;10.89;88.03;97938.31;4950406;28;20023;-60
2021/10/02 02:06:10;;;;;;;6.95;3.75;;;;;;;11.31;87.72;97945.19;4950996;28;20411;-59
2021/10/02 02:08:39;;;;;;;6.60;4.10;;;;;;;10.77;89.23;97934.47;4950696;28;20058;-59
2021/10/02 02:11:07;;;;;;;7.65;4.00;;;;;;;11.32;87.62;97950.34;4952046;28;20043;-59
2021/10/02 02:13:36;;;;;;;9.07;3.70;;;;;;;10.64;90.13;97938.50;4952216;28;20023;-60
2021/10/02 02:16:02;;;;;;;5.45;3.50;;;;;;;11.16;87.94;97942.34;4951490;28;20611;-60
2021/10/02 02:18:29;;;;;;;5.50;2.90;;;;;;;11.73;92.99;97937.16;4954225;28;20575;-59
2021/10/02 02:20:57;;;;;;;7.05;3.85;;;;;;;10.82;88.75;97942.09;4942010;28;20050;-59
2021/10/02 02:23:25;;;;;;;6.40;3.40;;;;;;;12.05;83.47;97942.63;4952821;28;20028;-59
2021/10/02 02:25:55;;;;;;;5.57;3.00;;;;;;;12.07;88.55;97939.94;4957035;28;20714;-60
2021/10/02 02:28:21;;;;;;;4.60;3.13;;;;;;;11.43;87.48;97936.78;4957248;28;20476;-59
2021/10/02 02:30:48;;;;;;;6.95;3.55;;;;;;;11.28;85.24;97935.72;4954941;28;20416;-60
2021/10/02 02:33:16;;;;;;;8.70;4.15;;;;;;;10.84;89.12;97930.69;4957066;28;20122;-59
2021/10/02 02:35:43;;;;;;;5.53;3.67;;;;;;;11.47;87.06;97937.47;4955188;28;20046;-58
2021/10/02 02:38:08;;;;;;;5.03;3.60;;;;;;;10.83;88.89;97939.44;4943101;28;20445;-60
2021/10/02 02:40:34;;;;;;;5.22;3.63;;;;;;;11.41;86.17;97932.53;4952175;28;20800;-59
2021/10/02 02:42:59;;;;;;;7.15;3.03;;;;;;;11.44;92.22;97932.41;4953646;28;20074;-59
2021/10/02 02:45:26;;;;;;;5.22;3.50;;;;;;;10.95;87.26;97933.69;4954774;28;20046;-59
2021/10/02 02:48:00;;;;;;;6.55;2.90;;;;;;;11.85;91.55;97934.88;4953705;28;20169;-60
2021/10/02 02:50:44;;;;;;;6.80;3.35;;;;;;;10.61;89.69;97937.72;4952798;28;20122;-59
2021/10/02 02:53:24;;;;;;;4.97;3.60;;;;;;;11.48;86.10;97932.19;4954850;28;20023;-59
2021/10/02 02:55:56;;;;;;;5.93;3.60;;;;;;;10.73;88.85;97938.13;4955874;28;20054;-60
2021/10/02 02:58:24;;;;;;;6.00;3.53;;;;;;;12.05;87.16;97940.03;4957292;28;20037;-60
2021/10/02 03:00:56;;;;;;;5.57;4.07;;;;;;;11.21;88.17;97942.13;4955769;28;20046;-59
2021/10/02 03:03:33;;;;;;;6.05;3.80;;;;;;;11.25;86.87;97941.09;4955876;28;20031;-59
2021/10/02 03:06:04;;;;;;;6.47;3.53;;;;;;;11.39;85.16;97943.06;4939461;28;20508;-58
2021/10/02 03:08:33;;;;;;;6.53;3.72;;;;;;;11.07;88.95;97942.75;4955251;28;20035;-60
2021/10/02 03:11:01;;;;;;;5.50;3.40;;;;;;;11.16;88.01;97941.50;4955352;28;20113;-59
2021/10/02 03:13:29;;;;;;;5.47;3.53;;;;;;;11.00;87.64;97939.53;4954199;28;20071;-60
2021/10/02 03:15:55;;;;;;;6.78;3.95;;;;;;;10.94;87.63;97938.97;4956404;28;20045;-59
2021/10/02 03:18:21;;;;;;;5.82;4.03;;;;;;;11.03;87.87;97942.94;4956025;28;20137;-59
2021/10/02 03:20:51;;;;;;;5.60;3.75;;;;;;;11.03;87.46;97940.31;4953789;28;20035;-60
2021/10/02 03:23:19;;;;;;;7.47;3.97;;;;;;;10.93;87.49;97940.72;4954607;28;20650;-60
2021/10/02 03:25:46;;;;;;;8.27;4.05;;;;;;;10.80;87.53;97934.34;4954526;28;20039;-59
2021/10/02 03:28:12;;;;;;;7.30;4.10;;;;;;;11.37;87.19;97942.28;4953378;28;20460;-59
2021/10/02 03:30:37;;;;;;;7.70;4.07;;;;;;;10.56;88.68;97939.69;4941586;28;20047;-59
2021/10/02 03:33:03;;;;;;;6.20;4.10;;;;;;;10.72;88.42;97934.69;4957442;28;20468;-58
2021/10/02 03:35:29;;;;;;;8.10;4.07;;;;;;;10.99;87.31;97937.88;4955303;28;20038;-57
2021/10/02 03:37:54;;;;;;;6.45;4.22;;;;;;;10.63;89.44;97937.69;4954251;28;20112;-59
2021/10/02 03:40:21;;;;;;;5.35;3.85;;;;;;;11.21;85.75;97933.44;4952180;28;20037;-59
2021/10/02 03:42:55;;;;;;;7.53;3.92;;;;;;;11.04;86.05;97931.59;4954313;28;20035;-59
2021/10/02 03:45:22;;;;;;;4.53;2.85;;;;;;;11.83;86.06;97937.56;4955417;28;20031;-59
2021/10/02 03:47:47;;;;;;;12.07;4.30;;;;;;;11.33;84.95;97936.34;4955114;28;20030;-59
2021/10/02 03:50:13;;;;;;;5.07;3.10;;;;;;;11.71;88.43;97944.22;4952320;28;20057;-59
2021/10/02 03:52:40;;;;;;;5.60;3.50;;;;;;;11.73;84.98;97942.38;4955953;28;20019;-60
2021/10/02 03:55:08;;;;;;;5.82;3.90;;;;;;;11.25;85.87;97946.31;4941564;28;20022;-59
2021/10/02 03:57:34;;;;;;;6.32;4.03;;;;;;;10.90;86.96;97940.88;4951504;28;20058;-59
2021/10/02 03:59:59;;;;;;;6.60;4.18;;;;;;;10.79;87.61;97937.88;4953507;28;20138;-58
2021/10/02 04:02:25;;;;;;;7.18;3.92;;;;;;;11.17;88.41;97937.94;4952901;28;20043;-60
2021/10/02 04:04:50;;;;;;;5.10;3.78;;;;;;;11.36;86.43;97928.38;4953356;28;20035;-59
2021/10/02 04:07:15;;;;;;;4.97;3.67;;;;;;;11.33;86.49;97936.34;4952937;28;20039;-60
2021/10/02 04:09:41;;;;;;;7.78;4.00;;;;;;;11.89;84.00;97931.19;4953955;28;20037;-60
2021/10/02 04:12:06;;;;;;;6.07;4.32;;;;;;;11.00;87.34;97929.09;4951785;28;20033;-59
2021/10/02 04:14:33;;;;;;;6.90;4.35;;;;;;;10.92;88.23;97926.00;4951947;28;20035;-60
2021/10/02 04:16:58;;;;;;;5.20;3.45;;;;;;;11.43;88.54;97931.56;4955408;28;20066;-59
2021/10/02 04:19:24;;;;;;;7.32;4.00;;;;;;;11.68;86.07;97927.81;4954237;28;20070;-59
2021/10/02 04:21:50;;;;;;;6.60;4.15;;;;;;;11.47;88.11;97924.44;4953643;28;20039;-59
2021/10/02 04:24:16;;;;;;;8.15;4.53;;;;;;;11.27;87.55;97923.59;4953788;28;20142;-59
2021/10/02 04:26:41;;;;;;;5.60;3.47;;;;;;;11.54;87.83;97918.00;4952257;28;20408;-58
2021/10/02 04:29:07;;;;;;;5.65;4.20;;;;;;;11.23;87.14;97919.44;4952252;28;20094;-60
2021/10/02 04:31:32;;;;;;;5.78;4.20;;;;;;;11.35;87.71;97915.41;4940650;28;20428;-59
2021/10/02 04:33:57;;;;;;;6.53;3.95;;;;;;;11.19;87.29;97925.69;4953565;28;20073;-58
2021/10/02 04:36:23;;;;;;;7.35;4.03;;;;;;;11.41;86.87;97917.72;4951698;28;20039;-58
2021/10/02 04:38:48;;;;;;;8.63;4.53;;;;;;;11.20;88.41;97916.94;4952565;28;20054;-59
2021/10/02 04:41:14;;;;;;;6.80;4.25;;;;;;;11.33;87.71;97923.28;4952869;28;20043;-60
2021/10/02 04:43:44;;;;;;;6.68;4.00;;;;;;;11.37;86.50;97924.84;4952765;28;20393;-60
2021/10/02 04:46:11;;;;;;;7.65;4.15;;;;;;;11.46;84.99;97922.75;4950974;28;20047;-58
2021/10/02 04:48:38;;;;;;;7.55;4.20;;;;;;;11.28;86.53;97917.44;4955066;28;20134;-59
2021/10/02 04:51:04;;;;;;;6.28;4.38;;;;;;;11.55;84.61;97917.94;4952316;28;20032;-59
2021/10/02 04:53:30;;;;;;;8.25;4.20;;;;;;;11.18;86.87;97924.00;4952562;28;20015;-59
2021/10/02 04:55:59;;;;;;;7.07;4.68;;;;;;;11.05;88.07;97917.63;4952944;28;20821;-58
2021/10/02 04:58:25;;;;;;;5.60;4.00;;;;;;;11.48;88.24;97915.69;4952592;28;20094;-59
2021/10/02 05:00:50;;;;;;;5.63;3.17;;;;;;;11.58;86.76;97922.19;4952033;28;20036;-58
2021/10/02 05:03:16;;;;;;;7.32;4.72;;;;;;;11.10;86.68;97924.34;4950723;28;20034;-59
2021/10/02 05:05:41;;;;;;;8.20;4.85;;;;;;;11.14;85.86;97925.06;4952678;28;20047;-59
2021/10/02 05:08:07;;;;;;;8.18;4.70;;;;;;;11.07;86.50;97918.41;4935294;28;20128;-59
2021/10/02 05:10:32;;;;;;;6.97;4.60;;;;;;;11.09;86.69;97930.47;4951718;28;20119;-59
2021/10/02 05:12:57;;;;;;;7.63;4.63;;;;;;;11.33;85.29;97932.91;4950054;28;20027;-60
2021/10/02 05:15:23;;;;;;;6.07;4.15;;;;;;;11.43;87.14;97938.53;4950681;28;20122;-58
2021/10/02 05:17:48;;;;;;;4.85;3.30;;;;;;;12.20;86.13;97941.03;4948590;28;20032;-60
2021/10/02 05:20:14;;;;;;;6.85;4.40;;;;;;;11.45;85.78;97942.81;4951329;28;20031;-58
2021/10/02 05:22:39;;;;;;;5.65;3.78;;;;;;;11.61;87.23;97939.47;4948745;28;20026;-59
2021/10/02 05:25:05;;;;;;;10.07;5.15;;;;;;;11.50;85.44;97945.19;4948119;28;20579;-58
2021/10/02 05:27:30;;;;;;;7.50;5.15;;;;;;;11.38;85.72;97942.22;4954075;28;20018;-59
2021/10/02 05:29:56;;;;;;;7.10;4.68;;;;;;;11.45;86.25;97949.75;4951721;28;20094;-59
2021/10/02 05:32:21;;;;;;;7.68;4.82;;;;;;;11.03;87.80;97951.63;4951902;28;20109;-59
2021/10/02 05:34:46;;;;;;;8.20;4.45;;;;;;;11.36;85.45;97951.88;4951922;28;20036;-59
2021/10/02 05:37:12;;;;;;;8.20;4.38;;;;;;;11.64;88.40;97947.19;4952818;28;20039;-58
2021/10/02 05:39:37;;;;;;;6.07;3.80;;;;;;;11.71;89.02;97941.59;4949295;28;20121;-59
2021/10/02 05:42:03;;;;;;;7.63;4.68;;;;;;;11.86;87.54;97941.81;4949797;28;20427;-59
2021/10/02 05:44:28;;;;;;;5.85;4.53;;;;;;;11.84;87.33;97944.47;4952162;28;20027;-58
2021/10/02 05:46:54;;;;;;;8.48;4.90;;;;;;;11.54;86.05;97952.84;4949007;28;20146;-59
2021/10/02 05:49:19;;;;;;;7.90;3.85;;;;;;;11.76;89.43;97949.22;4947948;28;20799;-59
2021/10/02 05:51:44;;;;;;;9.15;4.35;;;;;;;11.93;85.50;97943.25;4946262;28;20044;-59
2021/10/02 05:54:10;;;;;;;6.60;4.05;;;;;;;12.49;84.68;97942.22;4949007;28;20057;-60
2021/10/02 05:56:36;;;;;;;7.65;4.72;;;;;;;11.75;85.23;97950.97;4948275;28;20053;-59
2021/10/02 05:59:03;;;;;;;7.32;4.97;;;;;;;12.45;82.78;97952.94;4949098;28;20121;-59
2021/10/02 06:01:29;;;;;;;8.82;4.82;;;;;;;12.54;84.99;97961.19;4949540;28;20058;-58
2021/10/02 06:03:54;;;;;;;6.90;5.10;;;;;;;12.24;83.46;97952.22;4950023;28;20435;-59
2021/10/02 06:06:19;;;;;;;7.97;4.03;;;;;;;12.25;85.23;97943.47;4949288;28;20961;-60
2021/10/02 06:08:45;;;;;;;6.68;4.05;;;;;;;13.27;82.12;97955.72;4948549;28;20038;-60
2021/10/02 06:11:10;;;;;;;7.22;4.65;;;;;;;13.17;85.82;97958.91;4950371;28;20496;-58
2021/10/02 06:13:36;;;;;;;5.75;3.83;;;;;;;13.56;81.93;97966.44;4950084;28;20023;-58
2021/10/02 06:16:02;;;;;;;8.15;4.03;;;;;;;12.43;81.65;97968.72;4950093;28;20519;-59
2021/10/02 06:18:28;;;;;;;7.75;4.07;;;;;;;12.10;83.84;97965.97;4950520;28;20455;-59
2021/10/02 06:20:53;;;;;;;5.72;3.80;;;;;;;12.84;82.08;97975.41;4940684;28;20126;-59
2021/10/02 06:23:19;;;;;;;10.50;4.10;;;;;;;13.06;85.03;97983.88;4938398;28;20024;-59
2021/10/02 06:25:45;;;;;;;6.95;4.15;;;;;;;12.96;80.26;97971.31;4950430;28;20043;-58
2021/10/02 06:28:10;;;;;;;5.70;3.90;;;;;;;12.95;82.44;97974.88;4953117;28;20031;-57
2021/10/02 06:30:36;;;;;;;6.55;4.20;;;;;;;12.97;81.68;97970.41;4950352;28;20069;-58
2021/10/02 06:33:01;;;;;;;9.02;4.30;;;;;;;13.33;81.03;97975.53;4951299;28;20463;-58
2021/10/02 06:35:27;;;;;;;8.00;4.00;;;;;;;14.81;82.50;97978.75;4950094;28;20173;-58
2021/10/02 06:37:52;;;;;;;5.78;3.88;;;;;;;13.92;77.82;97978.50;4950270;28;20034;-57
2021/10/02 06:40:18;;;;;;;5.60;3.70;;;;;;;14.91;77.02;97978.22;4933283;28;20030;-59
2021/10/02 06:42:43;;;;;;;5.35;3.70;;;;;;;15.65;73.57;97968.50;4952244;28;20027;-58
2021/10/02 06:45:09;;;;;;;8.13;3.90;;;;;;;16.83;71.96;97966.16;4951619;28;20054;-58
2021/10/02 06:47:34;;;;;;;6.95;3.95;;;;;;;19.67;65.18;97962.34;4951233;28;20556;-58
2021/10/02 06:50:00;;;;;;;8.35;3.50;;;;;;;18.15;66.90;97958.78;4949851;28;20094;-59
2021/10/02 06:52:27;;;;;;;8.50;3.78;;;;;;;18.15;63.79;97958.78;4951352;28;20042;-58
2021/10/02 06:54:53;;;;;;;5.55;3.30;;;;;;;18.46;62.87;97951.28;4950014;28;20054;-59
2021/10/02 06:57:19;;;;;;;9.55;3.20;;;;;;;19.01;61.24;97947.16;4951572;28;20050;-59
2021/10/02 06:59:44;;;;;;;5.15;3.50;;;;;;;17.49;64.03;97943.19;4939809;28;20242;-58
2021/10/02 07:02:09;;;;;;;6.72;3.10;;;;;;;20.73;57.56;97934.41;4950252;28;20040;-58
2021/10/02 07:04:35;;;;;;;6.15;3.13;;;;;;;21.26;54.52;97941.44;4942358;28;20031;-59
2021/10/02 07:07:00;;;;;;;9.23;3.47;;;;;;;21.01;54.37;97937.41;4954714;28;20319;-59
2021/10/02 07:09:26;;;;;;;5.00;3.22;;;;;;;20.89;54.80;97932.16;4945593;28;20023;-59
2021/10/02 07:11:51;;;;;;;9.45;3.45;;;;;;;23.56;49.60;97933.13;4953563;28;20730;-58
2021/10/02 07:14:17;;;;;;;7.50;3.30;;;;;;;24.06;48.07;97929.28;4952827;28;20035;-59
2021/10/02 07:16:42;;;;;;;5.18;3.17;;;;;;;23.44;48.44;97929.00;4955229;28;20030;-60
2021/10/02 07:19:08;;;;;;;5.50;3.40;;;;;;;24.58;46.42;97923.31;4954635;28;20152;-60
2021/10/02 07:21:34;;;;;;;8.63;2.90;;;;;;;27.11;42.27;97919.94;4950761;28;20075;-58
2021/10/02 07:23:59;;;;;;;6.47;3.10;;;;;;;26.99;42.01;97931.97;4954708;28;20119;-58
2021/10/02 07:26:24;;;;;;;6.47;2.78;;;;;;;27.74;40.30;97925.47;4957126;28;20043;-59
2021/10/02 07:28:50;;;;;;;7.63;3.50;;;;;;;26.47;42.02;97926.94;4953461;28;20027;-59
2021/10/02 07:31:15;;;;;;;5.55;3.05;;;;;;;27.21;40.83;97911.69;4954461;28;20040;-57
2021/10/02 07:33:41;;;;;;;7.90;3.30;;;;;;;27.32;40.10;97915.06;4954285;28;20042;-59
2021/10/02 07:36:06;;;;;;;5.95;3.20;;;;;;;24.38;45.30;97928.75;4951215;28;20039;-59
2021/10/02 07:38:31;;;;;;;6.50;3.00;;;;;;;24.92;44.95;97925.22;4952110;28;20037;-59
2021/10/02 07:40:57;;;;;;;6.60;3.22;;;;;;;26.83;41.76;97932.81;4934712;28;20027;-59
2021/10/02 07:43:26;;;;;;;6.88;3.33;;;;;;;25.00;43.87;97935.97;4953555;28;20066;-59
2021/10/02 07:45:52;;;;;;;5.43;3.22;;;;;;;28.18;39.44;97935.66;4952998;28;20035;-60
2021/10/02 07:48:24;;;;;;;5.97;3.20;;;;;;;30.39;36.14;97934.50;4955478;28;20592;-62
2021/10/02 07:50:52;;;;;;;7.68;3.13;;;;;;;30.22;36.32;97931.19;4953859;28;20046;-59
2021/10/02 07:53:18;;;;;;;7.00;3.15;;;;;;;28.94;38.26;97927.72;4951574;28;20038;-59
2021/10/02 07:55:46;;;;;;;5.63;3.10;;;;;;;25.95;43.61;97922.63;4953651;28;20035;-59
2021/10/02 07:58:12;;;;;;;8.23;3.40;;;;;;;27.17;41.93;97934.47;4955124;28;20117;-57
2021/10/02 08:00:38;;;;;;;6.07;3.50;;;;;;;27.65;41.08;97932.69;4953660;28;20516;-58
2021/10/02 08:03:03;;;;;;;4.70;2.90;;;;;;;29.01;38.78;97934.03;4954613;28;20039;-60
2021/10/02 08:05:29;;;;;;;7.07;2.90;;;;;;;26.16;44.03;97938.25;4953009;28;20119;-59
2021/10/02 08:07:54;;;;;;;5.30;2.97;;;;;;;24.20;49.42;97943.88;4954730;28;20121;-59
2021/10/02 08:10:25;;;;;;;6.43;3.63;;;;;;;23.37;50.50;97939.38;4953647;28;20105;-59
2021/10/02 08:12:50;;;;;;;6.20;3.60;;;;;;;23.33;51.82;97939.81;4953234;28;20086;-58
2021/10/02 08:15:16;;;;;;;6.15;3.55;;;;;;;24.04;50.89;97947.19;4952291;28;20031;-59
2021/10/02 08:17:43;;;;;;;5.93;3.17;;;;;;;23.23;52.17;97945.16;4953995;28;20035;-58
2021/10/02 08:20:12;;;;;;;7.07;3.83;;;;;;;24.57;49.28;97943.78;4936877;28;20027;-57
2021/10/02 08:22:40;;;;;;;4.60;3.28;;;;;;;25.07;47.94;97950.38;4952770;28;20038;-59
2021/10/02 08:25:08;;;;;;;7.03;3.35;;;;;;;24.89;47.43;97946.91;4952235;28;20104;-59
2021/10/02 08:27:34;;;;;;;7.10;3.75;;;;;;;25.01;47.71;97942.97;4953781;28;20765;-59
2021/10/02 08:30:02;;;;;;;7.18;3.75;;;;;;;24.03;49.66;97940.22;4954823;28;20026;-59
2021/10/02 08:32:27;;;;;;;5.82;3.20;;;;;;;24.59;48.46;97931.16;4953044;28;20182;-59
2021/10/02 08:34:52;;;;;;;5.88;3.20;;;;;;;24.12;48.70;97926.00;4957900;28;20109;-58
2021/10/02 08:37:18;;;;;;;6.07;3.63;;;;;;;23.62;50.13;97934.38;4936456;28;20042;-60
2021/10/02 08:39:43;;;;;;;8.82;3.50;;;;;;;22.70;51.90;97928.69;4952728;28;20332;-58
2021/10/02 08:42:09;;;;;;;6.43;3.63;;;;;;;23.16;51.41;97923.63;4951441;28;20038;-59
2021/10/02 08:44:34;;;;;;;5.95;3.72;;;;;;;23.59;50.37;97922.19;4948622;28;20038;-58
2021/10/02 08:47:02;;;;;;;7.47;3.58;;;;;;;22.64;52.92;97923.09;4952076;28;20050;-59
2021/10/02 08:49:30;;;;;;;6.88;4.00;;;;;;;22.41;53.19;97920.72;4952924;28;20110;-60
2021/10/02 08:51:57;;;;;;;8.63;3.90;;;;;;;24.03;49.82;97917.06;4950218;28;20362;-60
2021/10/02 08:54:23;;;;;;;7.85;3.63;;;;;;;24.33;48.18;97914.19;4952611;28;20062;-59
2021/10/02 08:56:51;;;;;;;6.93;3.22;;;;;;;23.28;50.62;97921.59;4950520;28;20485;-58
2021/10/02 08:59:19;;;;;;;7.43;3.47;;;;;;;23.70;49.72;97933.63;4943936;28;20058;-59
2021/10/02 09:01:44;;;;;;;6.47;3.47;;;;;;;24.57;47.73;97926.94;4950221;28;20042;-60
2021/10/02 09:04:10;;;;;;;4.95;3.45;;;;;;;23.71;50.38;97929.97;4948570;28;20579;-58
2021/10/02 09:06:36;;;;;;;5.60;3.20;;;;;;;24.39;48.82;97919.78;4950444;28;20424;-59
2021/10/02 09:09:03;;;;;;;11.38;3.50;;;;;;;26.19;44.90;97913.00;4938980;28;20602;-59
2021/10/02 09:11:28;;;;;;;7.57;3.38;;;;;;;27.65;42.10;97915.78;4950367;28;20081;-60
2021/10/02 09:13:54;;;;;;;5.28;3.33;;;;;;;26.81;44.04;97920.63;4950272;28;20448;-59
2021/10/02 09:16:19;;;;;;;6.63;3.40;;;;;;;26.40;43.78;97915.25;4951636;28;20039;-60
2021/10/02 09:18:45;;;;;;;5.25;3.28;;;;;;;26.69;43.60;97915.63;4952710;28;20042;-57
2021/10/02 09:21:11;;;;;;;5.40;3.30;;;;;;;28.98;39.38;97910.22;4950840;28;20039;-60
2021/10/02 09:23:48;;;;;;;6.53;3.38;;;;;;;29.66;38.18;97902.13;4951484;28;20081;-60
2021/10/02 09:26:14;;;;;;;7.93;3.35;;;;;;;27.54;40.98;97900.09;4948830;28;20039;-59
2021/10/02 09:28:47;;;;;;;5.78;3.25;;;;;;;28.37;40.32;97904.03;4951367;28;20031;-59
2021/10/02 09:31:16;;;;;;;6.38;3.13;;;;;;;27.99;40.38;97896.72;4934532;28;20058;-59
2021/10/02 09:33:46;;;;;;;5.10;2.88;;;;;;;29.00;38.48;97896.63;4951116;28;20031;-59
2021/10/02 09:36:22;;;;;;;6.32;2.95;;;;;;;28.90;38.89;97894.22;4950767;28;20047;-59
2021/10/02 09:38:52;;;;;;;7.95;3.00;;;;;;;28.99;39.31;97885.06;4950627;28;20519;-59
2021/10/02 09:41:19;;;;;;;5.82;2.90;;;;;;;28.39;38.98;97883.22;4951217;28;20532;-59
2021/10/02 09:43:54;;;;;;;7.93;2.88;;;;;;;29.49;36.26;97888.06;4951833;28;20036;-60
2021/10/02 09:46:34;;;;;;;4.00;2.55;;;;;;;27.96;37.61;97888.22;4951161;28;20508;-60
2021/10/02 09:49:00;;;;;;;4.32;2.63;;;;;;;29.17;36.02;97883.91;4949600;28;20565;-59
2021/10/02 09:51:40;;;;;;;5.22;2.60;;;;;;;27.18;39.01;97884.44;4952146;28;20513;-59
2021/10/02 09:54:06;;;;;;;5.20;2.60;;;;;;;28.07;38.19;97871.72;4953367;28;20070;-59
2021/10/02 09:56:31;;;;;;;3.75;2.60;;;;;;;28.31;37.82;97867.19;4951372;28;20122;-59
2021/10/02 09:58:58;;;;;;;6.80;2.75;;;;;;;27.36;39.29;97874.38;4952338;28;20026;-58
2021/10/02 10:01:26;;;;;;;8.55;2.80;;;;;;;28.60;36.88;97867.31;4952993;28;20093;-60
2021/10/02 10:03:52;;;;;;;7.05;2.67;;;;;;;28.32;37.81;97853.59;4949399;28;20118;-59
2021/10/02 10:06:22;;;;;;;4.22;2.45;;;;;;;28.70;36.74;97855.50;4950132;28;20066;-59
2021/10/02 10:09:06;;;;;;;6.05;2.67;;;;;;;26.63;39.98;97851.22;4951391;28;20110;-60
2021/10/02 10:11:41;;;;;;;5.07;2.60;;;;;;;27.59;38.00;97841.44;4951026;28;20043;-59
2021/10/02 10:14:06;;;;;;;6.25;3.08;;;;;;;27.65;37.66;97846.94;4951947;28;20697;-58
2021/10/02 10:16:38;;;;;;;4.85;2.85;;;;;;;26.38;40.33;97837.84;4952420;28;20039;-58
2021/10/02 10:19:18;;;;;;;6.93;3.10;;;;;;;29.59;35.45;97834.88;4952231;28;20114;-60
2021/10/02 10:21:43;;;;;;;5.28;3.00;;;;;;;27.05;39.06;97823.41;4953991;28;20041;-59
2021/10/02 10:24:09;;;;;;;8.82;3.22;;;;;;;27.65;38.19;97824.69;4950223;28;20537;-60
2021/10/02 10:26:45;;;;;;;5.35;3.17;;;;;;;26.72;41.28;97827.00;4951974;28;20100;-60
2021/10/02 10:29:11;;;;;;;4.80;2.90;;;;;;;24.84;43.57;97821.16;4951436;28;20054;-60
2021/10/02 10:31:36;;;;;;;5.70;3.33;;;;;;;26.12;40.73;97816.63;4950925;28;20138;-59
2021/10/02 10:34:03;;;;;;;5.35;3.10;;;;;;;26.66;40.12;97824.97;4951073;28;20027;-60
2021/10/02 10:36:31;;;;;;;4.63;3.10;;;;;;;25.93;42.39;97817.75;4949592;28;20042;-59
2021/10/02 10:38:57;;;;;;;6.32;3.60;;;;;;;27.16;40.43;97814.16;4952068;28;20038;-60
2021/10/02 10:41:28;;;;;;;5.10;3.33;;;;;;;27.42;40.11;97814.75;4953743;28;20039;-60
2021/10/02 10:43:54;;;;;;;6.88;3.58;;;;;;;26.20;41.88;97819.28;4953914;28;20035;-60
2021/10/02 10:46:23;;;;;;;5.32;3.40;;;;;;;26.93;41.09;97821.09;4953461;28;20046;-58
2021/10/02 10:48:49;;;;;;;6.40;3.80;;;;;;;25.11;44.49;97818.28;4954777;28;20056;-60
2021/10/02 10:51:18;;;;;;;5.57;3.60;;;;;;;25.21;43.91;97816.31;4953374;28;20121;-59
2021/10/02 10:53:51;;;;;;;8.45;3.65;;;;;;;23.95;46.54;97815.78;4955412;28;20019;-58
2021/10/02 10:56:35;;;;;;;6.40;3.85;;;;;;;23.21;48.60;97814.91;4954650;28;20405;-60
2021/10/02 10:59:01;;;;;;;7.35;3.78;;;;;;;23.43;48.78;97804.88;4953805;28;20026;-58
2021/10/02 11:01:38;;;;;;;8.30;3.80;;;;;;;24.62;46.72;97812.66;4954171;28;20675;-59
2021/10/02 11:04:04;;;;;;;9.48;3.45;;;;;;;24.79;46.12;97809.13;4944915;28;20035;-59
2021/10/02 11:06:49;;;;;;;6.05;3.30;;;;;;;24.84;45.97;97805.13;4937335;28;20031;-60
2021/10/02 11:09:15;;;;;;;7.40;3.92;;;;;;;25.08;43.86;97797.25;4954859;28;20027;-59
2021/10/02 11:11:50;;;;;;;5.75;3.38;;;;;;;25.62;44.17;97796.13;4956415;28;20795;-61
2021/10/02 11:14:18;;;;;;;6.00;3.25;;;;;;;25.09;44.70;97793.59;4953427;28;20743;-60
2021/10/02 11:16:46;;;;;;;6.85;3.42;;;;;;;25.84;43.64;97789.31;4935240;28;20154;-62
2021/10/02 11:19:39;;;;;;;6.20;3.28;;;;;;;24.66;44.45;97787.34;4951500;28;20405;-58
2021/10/02 11:22:26;;;;;;;6.18;3.50;;;;;;;25.58;44.00;97796.47;4944754;28;20035;-61
2021/10/02 11:24:51;;;;;;;4.90;3.10;;;;;;;23.92;46.89;97778.78;4955184;28;20118;-60
2021/10/02 11:27:24;;;;;;;5.78;3.22;;;;;;;24.79;44.90;97776.25;4951703;28;20214;-60
2021/10/02 11:29:51;;;;;;;6.18;3.35;;;;;;;24.46;46.20;97772.53;4953293;28;20031;-61
2021/10/02 11:32:27;;;;;;;5.20;3.00;;;;;;;23.57;48.12;97769.75;4955187;28;20043;-62
2021/10/02 11:35:18;;;;;;;5.93;3.50;;;;;;;23.89;47.99;97768.41;4953781;28;20038;-61
2021/10/02 11:37:59;;;;;;;5.75;3.17;;;;;;;24.46;45.97;97765.34;4954481;28;20039;-60
2021/10/02 11:40:40;;;;;;;7.38;3.22;;;;;;;23.90;47.51;97762.13;4954294;28;20153;-62
2021/10/02 11:43:11;;;;;;;5.07;3.00;;;;;;;23.94;46.19;97750.16;4955529;28;20077;-61
2021/10/02 11:45:37;;;;;;;7.47;3.22;;;;;;;23.77;48.07;97751.81;4955260;28;20133;-60
2021/10/02 11:48:19;;;;;;;4.38;2.90;;;;;;;23.79;47.50;97743.69;4955161;28;20469;-62
2021/10/02 11:50:48;;;;;;;7.07;3.28;;;;;;;24.21;47.92;97735.88;4951880;28;20059;-64
2021/10/02 11:53:17;;;;;;;5.10;2.70;;;;;;;23.93;46.38;97732.53;4947941;28;20130;-62
2021/10/02 11:55:42;;;;;;;7.30;3.55;;;;;;;23.72;46.38;97730.13;4948293;28;20043;-67
2021/10/02 11:58:10;;;;;;;8.98;3.30;;;;;;;23.67;46.89;97724.41;4951215;28;20031;-66
2021/10/02 12:00:36;;;;;;;6.78;3.20;;;;;;;23.68;46.93;97718.13;4951381;28;20119;-61
2021/10/02 12:03:03;;;;;;;5.60;2.90;;;;;;;23.71;45.57;97722.28;4952075;28;20066;-62
2021/10/02 12:05:29;;;;;;;5.25;3.08;;;;;;;23.72;46.24;97713.31;4950398;28;20698;-60
2021/10/02 12:07:55;;;;;;;4.68;2.80;;;;;;;23.14;47.09;97704.78;4949605;28;20035;-64
2021/10/02 12:10:20;;;;;;;5.35;3.05;;;;;;;22.89;47.20;97712.44;4952054;28;20030;-62
2021/10/02 12:12:46;;;;;;;5.15;3.08;;;;;;;23.09;47.71;97701.72;4952830;28;20023;-60
2021/10/02 12:15:11;;;;;;;5.30;3.03;;;;;;;23.17;48.37;97693.81;4948779;28;20042;-62
2021/10/02 12:17:57;;;;;;;5.47;3.22;;;;;;;23.02;48.59;97687.31;4938924;28;20042;-61
2021/10/02 12:20:39;;;;;;;4.70;2.70;;;;;;;23.50;48.22;97702.13;4950440;28;20051;-62
2021/10/02 12:23:05;;;;;;;;;;;;;;;23.37;48.15;97693.69;4951779;28;20035;-61
2021/10/02 12:25:30;;;;;;;5.28;3.20;;;;;;;23.43;47.13;97698.41;4952686;28;19918;-61
2021/10/02 12:27:56;;;;;;;6.20;3.05;;;;;;;23.51;46.60;97685.19;4944336;28;20142;-61
2021/10/02 12:30:21;;;;;;;4.72;2.92;;;;;;;23.19;47.27;97683.84;4938062;28;20023;-61
2021/10/02 12:32:56;;;;;;;5.40;3.17;;;;;;;24.09;45.55;97677.69;4951840;28;20031;-61
2021/10/02 12:35:21;;;;;;;5.47;2.97;;;;;;;23.28;47.22;97672.31;4943523;28;20062;-64
2021/10/02 12:37:47;;;;;;;6.88;3.40;;;;;;;22.84;47.89;97674.81;4952085;28;20061;-64
2021/10/02 12:40:13;;;;;;;5.03;2.85;;;;;;;23.56;46.60;97669.56;4949214;28;20099;-64
2021/10/02 12:42:42;;;;;;;4.35;2.83;;;;;;;23.67;45.99;97664.03;4950373;28;20031;-62